上海/浦東 の空港の天気 - METARとTAF

上海浦東国際空港 ( ZSPD / PVG ) - 中国 上海市
飛行場実況気象(Metar)
観測時間07/16 14:00 CST (07/16 06:00 UTC)
風向・風速南東 8m/s
視程10km以上
天気現象
全天の4割程度の雲 雲底高度 910m
気温31℃
湿度66%
気圧1010hPa
METARZSPD 160600Z 14008MPS 9999 SCT030 31/24 Q1010 NOSIG
過去の天気等 Google飛行場航空写真 Wunderground天気予報

過去48時間のMETAR

飛行場予報(TAF)
発表時間: 7/16 11:16 CST (7/16 03:16 UTC)
予報対象時間: 16日14時 CST ~ 17日14時 CST
風向・風速南南東 5m/s
視程6000m
全天の4割程度の雲 雲底高度 610m
TAF ZSPD 160316Z 1606/1706 15005MPS 6000 SCT020 TX33/1606Z TN26/1621Z